createdAt,value
2022-12-20T00:00:46.465Z,74.21
2022-12-20T00:02:48.435Z,74.72
2022-12-20T00:04:50.434Z,74.47
2022-12-20T00:06:53.386Z,74.25
2022-12-20T00:08:57.667Z,73.94
2022-12-20T00:11:02.436Z,73.72
2022-12-20T00:13:05.025Z,73.95
2022-12-20T00:15:08.309Z,73.89
2022-12-20T00:17:10.175Z,73.74
2022-12-20T00:19:12.299Z,74.30
2022-12-20T00:21:15.489Z,74.10
2022-12-20T00:23:17.473Z,74.30
2022-12-20T00:25:20.983Z,73.99
2022-12-20T00:27:22.968Z,74.18
2022-12-20T00:29:24.902Z,74.45
2022-12-20T00:31:29.421Z,74.58
2022-12-20T00:33:35.264Z,75.04
2022-12-20T00:35:43.257Z,75.34
2022-12-20T00:37:45.599Z,75.81
2022-12-20T00:39:47.649Z,75.88
2022-12-20T00:41:49.583Z,76.58
2022-12-20T00:43:52.336Z,76.71
2022-12-20T00:45:54.265Z,77.16
2022-12-20T00:47:56.107Z,77.05
2022-12-20T00:49:58.015Z,77.35
2022-12-20T00:52:01.935Z,76.70
2022-12-20T00:54:05.907Z,77.36
2022-12-20T00:56:08.540Z,77.53
2022-12-20T00:58:11.239Z,77.42
2022-12-20T01:00:13.624Z,77.73
2022-12-20T01:02:15.644Z,77.57
2022-12-20T01:04:18.032Z,77.78
2022-12-20T01:06:21.686Z,79.07
2022-12-20T01:08:25.244Z,78.68
2022-12-20T01:10:27.747Z,79.48
2022-12-20T01:12:31.604Z,79.54
2022-12-20T01:14:33.535Z,79.78
2022-12-20T01:16:39.682Z,79.83
2022-12-20T01:18:41.675Z,80.74
2022-12-20T01:20:43.946Z,80.54
2022-12-20T01:22:51.759Z,80.85
2022-12-20T01:24:53.777Z,80.58
2022-12-20T01:26:56.700Z,80.73
2022-12-20T01:29:00.578Z,80.76
2022-12-20T01:31:02.612Z,80.90
2022-12-20T01:33:04.463Z,81.24
2022-12-20T01:35:06.612Z,81.56
2022-12-20T01:37:08.885Z,81.41
2022-12-20T01:39:16.681Z,81.16
2022-12-20T01:41:22.949Z,81.19
2022-12-20T01:43:44.285Z,81.36
2022-12-20T01:45:47.139Z,81.97
2022-12-20T01:47:51.148Z,81.87
2022-12-20T01:49:56.732Z,82.07
2022-12-20T01:52:15.161Z,81.76
2022-12-20T01:54:19.075Z,81.44
2022-12-20T01:56:21.971Z,81.91
2022-12-20T01:58:24.878Z,81.89
2022-12-20T02:00:26.989Z,82.03
2022-12-20T02:02:29.222Z,81.66
2022-12-20T02:04:31.361Z,82.34
2022-12-20T02:06:33.316Z,81.70
2022-12-20T02:08:35.301Z,82.33
2022-12-20T02:11:01.691Z,82.22
2022-12-20T02:13:24.422Z,82.55
2022-12-20T02:15:50.324Z,82.05
2022-12-20T02:17:56.292Z,82.13
2022-12-20T02:20:30.452Z,82.20
2022-12-20T02:22:56.844Z,82.12
2022-12-20T02:25:19.427Z,82.52
2022-12-20T02:27:41.430Z,82.43
2022-12-20T02:30:01.904Z,82.96
2022-12-20T02:32:10.676Z,82.60
2022-12-20T02:34:15.185Z,82.72
2022-12-20T02:36:18.285Z,83.01
2022-12-20T02:38:33.818Z,82.89
2022-12-20T02:40:41.590Z,83.60
2022-12-20T02:42:45.063Z,83.30
2022-12-20T02:45:17.226Z,83.76
2022-12-20T02:47:21.832Z,83.89
2022-12-20T02:49:29.356Z,83.79
2022-12-20T02:51:33.325Z,83.66
2022-12-20T02:53:37.012Z,84.09
2022-12-20T02:55:51.516Z,83.88
2022-12-20T02:58:07.130Z,83.82
2022-12-20T03:00:13.465Z,83.75
2022-12-20T03:02:16.108Z,84.13
2022-12-20T03:04:22.905Z,83.98
2022-12-20T03:06:25.558Z,83.72
2022-12-20T03:08:27.586Z,83.57
2022-12-20T03:10:29.734Z,84.07
2022-12-20T03:12:31.589Z,83.71
2022-12-20T03:14:36.202Z,83.66
2022-12-20T03:16:38.096Z,83.68
2022-12-20T03:18:40.089Z,83.38
2022-12-20T03:20:43.350Z,83.29
2022-12-20T03:22:45.350Z,83.55
2022-12-20T03:24:48.222Z,83.38
2022-12-20T03:26:50.250Z,83.33
2022-12-20T03:28:52.239Z,82.92
2022-12-20T03:30:54.209Z,82.87
2022-12-20T03:32:56.359Z,83.36
2022-12-20T03:34:58.226Z,83.29
2022-12-20T03:37:00.166Z,83.57
2022-12-20T03:39:03.028Z,83.67
2022-12-20T03:41:04.939Z,83.38
2022-12-20T03:43:06.909Z,83.93
2022-12-20T03:45:09.324Z,83.57
2022-12-20T03:47:11.283Z,83.60
2022-12-20T03:49:14.243Z,83.67
2022-12-20T03:51:16.128Z,83.46
2022-12-20T03:53:18.002Z,83.22
2022-12-20T03:55:21.891Z,83.26
2022-12-20T03:57:23.994Z,83.44
2022-12-20T03:59:25.932Z,83.24
2022-12-20T04:01:29.803Z,82.77
2022-12-20T04:03:33.822Z,82.39
2022-12-20T04:05:35.769Z,82.71
2022-12-20T04:07:37.936Z,82.92
2022-12-20T04:09:39.816Z,82.92
2022-12-20T04:11:41.781Z,82.48
2022-12-20T04:13:54.204Z,82.77
2022-12-20T04:16:00.345Z,82.52
2022-12-20T04:18:02.708Z,82.17
2022-12-20T04:20:19.301Z,82.27
2022-12-20T04:22:21.359Z,82.28
2022-12-20T04:24:23.244Z,82.77
2022-12-20T04:26:25.251Z,82.45
2022-12-20T04:28:27.540Z,82.27
2022-12-20T04:30:29.429Z,82.45
2022-12-20T04:32:31.347Z,82.48
2022-12-20T04:34:33.300Z,82.57
2022-12-20T04:36:35.315Z,82.15
2022-12-20T04:38:37.307Z,82.07
2022-12-20T04:40:39.228Z,82.12
2022-12-20T04:42:41.079Z,82.82
2022-12-20T04:44:43.081Z,82.12
2022-12-20T04:46:45.235Z,82.60
2022-12-20T04:48:56.972Z,82.48
2022-12-20T04:51:02.503Z,82.37
2022-12-20T04:53:24.895Z,82.52
2022-12-20T04:55:26.880Z,82.59
2022-12-20T04:57:29.743Z,82.55
2022-12-20T04:59:32.873Z,81.98
2022-12-20T05:01:35.079Z,82.03
2022-12-20T05:03:37.938Z,81.84
2022-12-20T05:05:39.942Z,81.81
2022-12-20T05:07:43.860Z,82.07
2022-12-20T05:09:45.696Z,81.67
2022-12-20T05:11:47.692Z,81.89
2022-12-20T05:13:49.569Z,81.71
2022-12-20T05:15:53.578Z,81.15
2022-12-20T05:17:59.840Z,80.91
2022-12-20T05:20:01.871Z,80.61
2022-12-20T05:22:23.420Z,80.64
2022-12-20T05:24:43.998Z,80.38
2022-12-20T05:26:46.936Z,80.06
2022-12-20T05:28:49.834Z,80.29
2022-12-20T05:30:51.795Z,80.40
2022-12-20T05:32:53.897Z,80.29
2022-12-20T05:34:56.793Z,80.58
2022-12-20T05:36:58.672Z,80.99
2022-12-20T05:39:04.860Z,80.28
2022-12-20T05:41:07.439Z,79.97
2022-12-20T05:43:09.709Z,80.31
2022-12-20T05:45:11.829Z,80.21
2022-12-20T05:47:13.734Z,80.00
2022-12-20T05:49:15.756Z,80.15
2022-12-20T05:51:17.707Z,80.16
2022-12-20T05:53:19.776Z,79.78
2022-12-20T05:55:22.660Z,79.77
2022-12-20T05:57:24.579Z,79.88
2022-12-20T05:59:26.545Z,79.25
2022-12-20T06:01:28.507Z,79.46
2022-12-20T06:03:31.076Z,78.54
2022-12-20T06:05:34.553Z,79.05
2022-12-20T06:07:36.483Z,78.85
2022-12-20T06:09:38.400Z,78.39
2022-12-20T06:11:40.398Z,78.50
2022-12-20T06:13:42.399Z,78.22
2022-12-20T06:15:44.383Z,77.68
2022-12-20T06:17:48.264Z,77.51
2022-12-20T06:19:50.223Z,77.47
2022-12-20T06:21:53.214Z,77.38
2022-12-20T06:23:55.491Z,76.80
2022-12-20T06:25:58.259Z,77.12
2022-12-20T06:28:00.328Z,76.90
2022-12-20T06:30:05.789Z,77.22
2022-12-20T06:32:07.869Z,77.20
2022-12-20T06:34:10.282Z,76.99
2022-12-20T06:36:12.269Z,77.40
2022-12-20T06:38:14.293Z,76.33
2022-12-20T06:40:16.636Z,76.76
2022-12-20T06:42:20.745Z,76.22
2022-12-20T06:44:22.766Z,75.49
2022-12-20T06:46:24.650Z,75.18
2022-12-20T06:48:26.610Z,75.42
2022-12-20T06:50:28.546Z,75.19
2022-12-20T06:52:30.664Z,75.29
2022-12-20T06:54:32.643Z,75.14
2022-12-20T06:56:41.212Z,75.41
2022-12-20T06:58:43.718Z,74.67
2022-12-20T07:00:50.736Z,75.37
2022-12-20T07:02:52.863Z,75.17
2022-12-20T07:04:55.015Z,74.13
2022-12-20T07:06:57.519Z,74.40
2022-12-20T07:08:59.431Z,73.85
2022-12-20T07:11:08.809Z,73.83
2022-12-20T07:13:12.005Z,74.38
2022-12-20T07:15:14.061Z,74.41
2022-12-20T07:17:16.007Z,73.82
2022-12-20T07:19:18.111Z,73.91
2022-12-20T07:21:20.959Z,74.12
2022-12-20T07:23:22.934Z,74.23
2022-12-20T07:25:26.021Z,74.17
2022-12-20T07:27:28.049Z,73.71
2022-12-20T07:29:30.672Z,73.68
2022-12-20T07:31:32.757Z,73.35
2022-12-20T07:33:37.485Z,73.45
2022-12-20T07:35:39.659Z,73.31
2022-12-20T07:37:42.301Z,73.14
2022-12-20T07:39:45.252Z,73.23
2022-12-20T07:41:47.148Z,72.89
2022-12-20T07:43:49.119Z,72.81
2022-12-20T07:45:56.363Z,72.05
2022-12-20T07:48:03.287Z,72.39
2022-12-20T07:50:09.735Z,72.46
2022-12-20T07:52:15.011Z,71.97
2022-12-20T07:54:22.360Z,71.97
2022-12-20T07:56:24.546Z,72.44
2022-12-20T07:58:31.111Z,72.14
2022-12-20T08:00:34.388Z,72.00
2022-12-20T08:02:43.018Z,71.89
2022-12-20T08:04:45.396Z,72.09
2022-12-20T08:06:48.468Z,71.20
2022-12-20T08:08:57.845Z,71.03
2022-12-20T08:11:05.745Z,71.31
2022-12-20T08:13:08.117Z,70.74
2022-12-20T08:15:10.533Z,70.46
2022-12-20T08:17:12.568Z,70.62
2022-12-20T08:19:14.596Z,70.48
2022-12-20T08:21:17.595Z,70.38
2022-12-20T08:23:20.526Z,70.35
2022-12-20T08:25:22.541Z,69.57
2022-12-20T08:27:24.489Z,70.03
2022-12-20T08:29:26.461Z,70.22
2022-12-20T08:31:28.515Z,69.79
2022-12-20T08:33:32.842Z,69.35
2022-12-20T08:35:34.735Z,70.03
2022-12-20T08:37:37.649Z,69.11
2022-12-20T08:39:39.611Z,68.97
2022-12-20T08:41:41.565Z,69.52
2022-12-20T08:43:44.563Z,69.02
2022-12-20T08:45:53.497Z,68.99
2022-12-20T08:47:55.531Z,68.39
2022-12-20T08:49:57.578Z,68.51
2022-12-20T08:51:59.545Z,68.02
2022-12-20T08:54:02.921Z,68.16
2022-12-20T08:56:11.160Z,68.47
2022-12-20T08:58:14.010Z,68.57
2022-12-20T09:00:16.631Z,67.91
2022-12-20T09:02:18.792Z,68.03
2022-12-20T09:04:22.119Z,68.13
2022-12-20T09:06:24.281Z,67.51
2022-12-20T09:08:26.987Z,68.25
2022-12-20T09:10:28.924Z,67.80
2022-12-20T09:12:30.901Z,67.42
2022-12-20T09:14:35.955Z,67.17
2022-12-20T09:16:37.914Z,66.44
2022-12-20T09:18:40.038Z,66.72
2022-12-20T09:20:45.773Z,66.50
2022-12-20T09:22:47.733Z,66.95
2022-12-20T09:24:49.692Z,66.47
2022-12-20T09:26:52.276Z,65.97
2022-12-20T09:28:54.922Z,66.10
2022-12-20T09:31:01.558Z,66.13
2022-12-20T09:33:10.888Z,64.88
2022-12-20T09:35:16.558Z,65.11
2022-12-20T09:37:21.376Z,65.40
2022-12-20T09:39:23.415Z,65.00
2022-12-20T09:41:38.947Z,65.04
2022-12-20T09:43:42.316Z,64.83
2022-12-20T09:45:47.730Z,64.41
2022-12-20T09:47:56.555Z,64.10
2022-12-20T09:49:58.649Z,64.14
2022-12-20T09:52:32.445Z,64.34
2022-12-20T09:54:47.902Z,63.92
2022-12-20T09:57:07.372Z,64.88
2022-12-20T09:59:15.733Z,64.37
2022-12-20T10:01:25.324Z,64.10
2022-12-20T10:03:35.976Z,63.93
2022-12-20T10:05:56.467Z,64.59
2022-12-20T10:08:35.158Z,64.41
2022-12-20T10:11:02.514Z,64.35
2022-12-20T10:13:20.773Z,63.71
2022-12-20T10:15:28.208Z,64.11
2022-12-20T10:17:51.110Z,63.22
2022-12-20T10:20:09.124Z,63.80
2022-12-20T10:22:13.660Z,63.11
2022-12-20T10:24:21.780Z,63.73
2022-12-20T10:26:24.116Z,64.40
2022-12-20T10:28:30.824Z,63.59
2022-12-20T10:30:35.753Z,63.50
2022-12-20T10:32:37.978Z,64.00
2022-12-20T10:34:48.628Z,63.69
2022-12-20T10:37:14.705Z,63.45
2022-12-20T10:39:16.764Z,63.35
2022-12-20T10:41:23.427Z,62.57
2022-12-20T10:43:27.053Z,62.55
2022-12-20T10:45:37.895Z,62.57
2022-12-20T10:47:44.974Z,63.01
2022-12-20T10:49:49.375Z,63.15
2022-12-20T10:51:57.529Z,63.81
2022-12-20T10:54:23.241Z,63.89
2022-12-20T10:56:34.406Z,63.44
2022-12-20T10:58:39.759Z,64.03
2022-12-20T11:00:42.763Z,64.34
2022-12-20T11:03:03.984Z,64.61
2022-12-20T11:05:12.776Z,64.06
2022-12-20T11:07:28.585Z,64.73
2022-12-20T11:09:33.400Z,63.82
2022-12-20T11:11:35.707Z,64.46
2022-12-20T11:13:37.783Z,64.10
2022-12-20T11:15:51.993Z,64.41
2022-12-20T11:18:13.714Z,64.76
2022-12-20T11:20:40.036Z,64.17
2022-12-20T11:22:44.854Z,64.67
2022-12-20T11:25:05.968Z,64.10
2022-12-20T11:27:13.442Z,64.36
2022-12-20T11:29:26.365Z,64.28
2022-12-20T11:32:08.842Z,64.48
2022-12-20T11:34:10.776Z,64.62
2022-12-20T11:36:32.887Z,64.96
2022-12-20T11:38:59.493Z,65.10
2022-12-20T11:41:11.415Z,64.73
2022-12-20T11:43:20.510Z,65.33
2022-12-20T11:45:26.518Z,65.57
2022-12-20T11:48:09.996Z,65.45
2022-12-20T11:50:18.455Z,65.76
2022-12-20T11:52:37.125Z,64.60
2022-12-20T11:54:47.981Z,65.03
2022-12-20T11:56:56.793Z,64.79
2022-12-20T11:59:18.949Z,63.74
2022-12-20T12:01:30.275Z,63.73
2022-12-20T12:03:41.328Z,63.16
2022-12-20T12:06:01.169Z,63.05
2022-12-20T12:08:13.530Z,62.62
2022-12-20T12:10:24.797Z,62.18
2022-12-20T12:12:58.705Z,61.70
2022-12-20T12:15:23.986Z,62.00
2022-12-20T12:17:45.258Z,62.24
2022-12-20T12:19:51.519Z,61.90
2022-12-20T12:22:02.303Z,62.06
2022-12-20T12:24:20.969Z,62.94
2022-12-20T12:26:30.448Z,63.22
2022-12-20T12:28:34.706Z,63.35
2022-12-20T12:30:46.274Z,63.68
2022-12-20T12:33:01.165Z,63.68
2022-12-20T12:35:31.925Z,63.82
2022-12-20T12:37:44.560Z,63.58
2022-12-20T12:40:02.217Z,63.56
2022-12-20T12:42:10.251Z,64.02
2022-12-20T12:44:33.123Z,63.77
2022-12-20T12:46:37.284Z,64.39
2022-12-20T12:48:56.255Z,64.11
2022-12-20T12:50:59.712Z,64.16
2022-12-20T12:53:22.861Z,64.74
2022-12-20T12:55:41.296Z,64.49
2022-12-20T12:57:57.404Z,65.01
2022-12-20T12:59:59.447Z,65.46
2022-12-20T13:02:04.541Z,65.37
2022-12-20T13:04:48.462Z,65.32
2022-12-20T13:07:22.872Z,64.78
2022-12-20T13:09:28.063Z,65.81
2022-12-20T13:11:39.216Z,64.92
2022-12-20T13:13:44.798Z,65.74
2022-12-20T13:15:48.420Z,65.24
2022-12-20T13:18:10.944Z,65.30
2022-12-20T13:20:18.495Z,65.40
2022-12-20T13:22:25.600Z,65.64
2022-12-20T13:24:55.346Z,65.51
2022-12-20T13:26:58.290Z,65.57
2022-12-20T13:29:23.547Z,64.75
2022-12-20T13:31:25.570Z,65.64
2022-12-20T13:33:48.531Z,65.89
2022-12-20T13:36:01.260Z,65.61
2022-12-20T13:38:13.600Z,65.99
2022-12-20T13:40:57.597Z,66.23
2022-12-20T13:43:06.612Z,66.54
2022-12-20T13:45:13.518Z,65.95
2022-12-20T13:47:18.573Z,66.57
2022-12-20T13:49:26.450Z,66.64
2022-12-20T13:51:29.377Z,66.34
2022-12-20T13:53:31.797Z,66.00
2022-12-20T13:55:36.524Z,66.34
2022-12-20T13:57:55.223Z,66.67
2022-12-20T14:00:06.287Z,66.56
2022-12-20T14:02:21.088Z,66.86
2022-12-20T14:04:27.136Z,66.53
2022-12-20T14:06:29.208Z,66.07
2022-12-20T14:08:34.814Z,65.87
2022-12-20T14:10:37.049Z,66.51
2022-12-20T14:12:54.915Z,66.23
2022-12-20T14:15:13.653Z,66.26
2022-12-20T14:17:18.883Z,66.80
2022-12-20T14:19:20.901Z,66.85
2022-12-20T14:21:24.641Z,66.97
2022-12-20T14:23:51.031Z,66.63
2022-12-20T14:25:59.433Z,66.77
2022-12-20T14:28:02.046Z,67.04
2022-12-20T14:30:06.087Z,66.91
2022-12-20T14:32:19.089Z,66.79
2022-12-20T14:34:33.133Z,66.69
2022-12-20T14:36:43.933Z,67.13
2022-12-20T14:38:48.931Z,67.57
2022-12-20T14:40:54.128Z,67.54
2022-12-20T14:42:56.763Z,67.23
2022-12-20T14:45:14.803Z,67.29
2022-12-20T14:47:26.843Z,67.43
2022-12-20T14:49:33.169Z,67.18
2022-12-20T14:51:35.403Z,67.85
2022-12-20T14:53:40.469Z,67.42
2022-12-20T14:55:46.821Z,67.80
2022-12-20T14:57:55.339Z,68.04
2022-12-20T15:00:23.249Z,67.16
2022-12-20T15:02:36.443Z,67.26
2022-12-20T15:04:39.684Z,67.47
2022-12-20T15:06:44.886Z,67.54
2022-12-20T15:08:46.847Z,67.23
2022-12-20T15:11:11.159Z,67.83
2022-12-20T15:13:18.797Z,67.81
2022-12-20T15:15:29.673Z,67.62
2022-12-20T15:17:32.056Z,67.81
2022-12-20T15:19:40.378Z,68.06
2022-12-20T15:21:45.884Z,68.62
2022-12-20T15:23:51.748Z,68.38
2022-12-20T15:25:53.990Z,68.46
2022-12-20T15:27:55.940Z,68.69
2022-12-20T15:29:59.316Z,68.42
2022-12-20T15:32:29.994Z,69.10
2022-12-20T15:34:38.117Z,69.67
2022-12-20T15:36:40.123Z,69.55
2022-12-20T15:39:10.680Z,69.72
2022-12-20T15:41:06.613Z,69.44
2022-12-20T15:43:13.263Z,70.12
2022-12-20T15:45:16.352Z,70.18
2022-12-20T15:47:18.434Z,70.72
2022-12-20T15:49:23.289Z,70.50
2022-12-20T15:51:31.775Z,70.02
2022-12-20T15:53:34.932Z,70.54
2022-12-20T15:55:40.217Z,70.20
2022-12-20T15:57:43.332Z,70.20
2022-12-20T16:00:04.058Z,70.01
2022-12-20T16:02:25.277Z,69.97
2022-12-20T16:04:29.194Z,69.90
2022-12-20T16:06:31.910Z,69.62
2022-12-20T16:08:33.922Z,69.58
2022-12-20T16:10:36.667Z,69.75
2022-12-20T16:12:38.833Z,69.99
2022-12-20T16:14:40.749Z,69.74
2022-12-20T16:16:43.111Z,69.77
2022-12-20T16:18:45.591Z,70.02
2022-12-20T16:20:48.597Z,69.44
2022-12-20T16:22:50.675Z,69.42
2022-12-20T16:24:52.632Z,69.97
2022-12-20T16:26:54.631Z,69.33
2022-12-20T16:28:58.586Z,69.88
2022-12-20T16:31:00.575Z,69.82
2022-12-20T16:33:03.211Z,69.93
2022-12-20T16:35:05.519Z,69.75
2022-12-20T16:37:07.557Z,69.38
2022-12-20T16:39:13.020Z,69.60
2022-12-20T16:41:21.600Z,69.52
2022-12-20T16:43:23.657Z,69.62
2022-12-20T16:45:29.146Z,69.16
2022-12-20T16:47:32.119Z,69.51
2022-12-20T16:49:34.131Z,69.43
2022-12-20T16:51:42.525Z,69.78
2022-12-20T16:54:17.540Z,70.04
2022-12-20T16:56:14.925Z,69.35
2022-12-20T16:58:17.038Z,69.88
2022-12-20T17:00:22.979Z,70.66
2022-12-20T17:02:30.655Z,70.78
2022-12-20T17:04:32.778Z,69.82
2022-12-20T17:06:34.805Z,70.11
2022-12-20T17:10:58.293Z,70.58
2022-12-20T17:13:00.495Z,70.81
2022-12-20T17:15:03.314Z,71.30
2022-12-20T17:17:05.512Z,70.69
2022-12-20T17:19:14.090Z,70.52
2022-12-20T17:24:00.899Z,71.28
2022-12-20T17:26:02.887Z,71.25
2022-12-20T17:28:05.050Z,71.14
2022-12-20T17:30:07.771Z,70.83
2022-12-20T17:32:23.308Z,70.71
2022-12-20T17:34:28.492Z,71.13
2022-12-20T17:36:35.961Z,70.83
2022-12-20T17:38:40.669Z,70.81
2022-12-20T17:40:44.019Z,71.20
2022-12-20T17:42:46.247Z,70.78
2022-12-20T17:44:48.260Z,70.84
2022-12-20T17:46:50.932Z,70.54
2022-12-20T17:48:53.744Z,70.23
2022-12-20T17:50:55.735Z,70.96
2022-12-20T17:52:59.737Z,70.90
2022-12-20T17:55:01.671Z,71.23
2022-12-20T17:57:03.784Z,71.42
2022-12-20T17:59:07.303Z,71.30
2022-12-20T18:01:26.119Z,71.40
2022-12-20T18:04:02.239Z,71.07
2022-12-20T18:05:51.245Z,71.04
2022-12-20T18:07:57.271Z,71.17
2022-12-20T18:09:59.605Z,70.81
2022-12-20T18:12:01.687Z,71.42
2022-12-20T18:14:03.881Z,70.79
2022-12-20T18:16:07.295Z,71.01
2022-12-20T18:18:09.514Z,70.92
2022-12-20T18:20:12.456Z,70.97
2022-12-20T18:22:17.844Z,71.01
2022-12-20T18:24:22.133Z,70.81
2022-12-20T18:26:32.388Z,70.28
2022-12-20T18:28:37.393Z,70.08
2022-12-20T18:30:40.516Z,70.45
2022-12-20T18:32:45.767Z,70.48
2022-12-20T18:34:50.000Z,70.03
2022-12-20T18:36:52.416Z,70.85
2022-12-20T18:38:55.525Z,70.35
2022-12-20T18:41:04.113Z,70.34
2022-12-20T18:43:06.642Z,69.70
2022-12-20T18:45:11.647Z,69.96
2022-12-20T18:47:13.952Z,69.48
2022-12-20T18:49:17.138Z,69.74
2022-12-20T18:51:22.787Z,69.93
2022-12-20T18:53:25.009Z,69.83
2022-12-20T18:55:27.070Z,70.55
2022-12-20T18:57:29.219Z,70.60
2022-12-20T18:59:31.507Z,70.23
2022-12-20T19:01:35.248Z,70.68
2022-12-20T19:03:37.424Z,70.60
2022-12-20T19:05:39.605Z,70.17
2022-12-20T19:07:42.755Z,70.10
2022-12-20T19:09:45.345Z,70.37
2022-12-20T19:11:56.669Z,70.26
2022-12-20T19:14:00.440Z,70.48
2022-12-20T19:16:13.584Z,70.73
2022-12-20T19:18:16.687Z,70.59
2022-12-20T19:20:21.598Z,70.75
2022-12-20T19:22:25.528Z,70.83
2022-12-20T19:24:27.616Z,71.01
2022-12-20T19:26:33.981Z,70.74
2022-12-20T19:28:36.955Z,70.62
2022-12-20T19:30:40.535Z,70.61
2022-12-20T19:32:43.328Z,70.45
2022-12-20T19:34:46.025Z,70.26
2022-12-20T19:36:48.738Z,70.40
2022-12-20T19:38:56.009Z,70.09
2022-12-20T19:41:00.511Z,70.52
2022-12-20T19:43:02.521Z,71.09
2022-12-20T19:45:04.884Z,70.43
2022-12-20T19:47:08.205Z,70.73
2022-12-20T19:49:12.127Z,70.77
2022-12-20T19:51:16.237Z,70.49
2022-12-20T19:53:26.370Z,70.56
2022-12-20T19:55:28.676Z,70.81
2022-12-20T19:57:30.590Z,70.74
2022-12-20T19:59:33.708Z,70.53
2022-12-20T20:01:36.133Z,70.56
2022-12-20T20:03:39.101Z,70.08
2022-12-20T20:05:41.940Z,70.11
2022-12-20T20:07:44.172Z,70.41
2022-12-20T20:09:46.285Z,69.92
2022-12-20T20:11:49.242Z,70.31
2022-12-20T20:13:54.736Z,70.45
2022-12-20T20:16:01.044Z,70.34
2022-12-20T20:18:03.142Z,69.76
2022-12-20T20:20:08.936Z,69.45
2022-12-20T20:22:11.184Z,69.57
2022-12-20T20:24:13.611Z,69.26
2022-12-20T20:26:19.466Z,69.94
2022-12-20T20:28:26.521Z,69.57
2022-12-20T20:30:31.694Z,69.96
2022-12-20T20:32:34.133Z,69.32
2022-12-20T20:34:38.624Z,69.10
2022-12-20T20:36:44.211Z,69.05
2022-12-20T20:38:46.551Z,69.96
2022-12-20T20:40:48.808Z,69.31
2022-12-20T20:43:04.037Z,69.63
2022-12-20T20:45:06.737Z,69.87
2022-12-20T20:47:10.851Z,69.94
2022-12-20T20:49:14.241Z,69.61
2022-12-20T20:51:21.373Z,69.87
2022-12-20T20:53:27.974Z,69.98
2022-12-20T20:55:36.003Z,69.38
2022-12-20T20:57:38.106Z,70.28
2022-12-20T20:59:40.161Z,70.09
2022-12-20T21:01:42.603Z,69.76
2022-12-20T21:03:45.870Z,69.99
2022-12-20T21:06:22.286Z,70.23
2022-12-20T21:08:10.458Z,70.18
2022-12-20T21:10:13.863Z,69.60
2022-12-20T21:12:17.125Z,69.74
2022-12-20T21:14:36.495Z,70.17
2022-12-20T21:16:42.540Z,70.28
2022-12-20T21:18:44.782Z,70.27
2022-12-20T21:20:46.794Z,70.30
2022-12-20T21:22:48.647Z,70.67
2022-12-20T21:24:51.699Z,70.31
2022-12-20T21:26:59.262Z,70.12
2022-12-20T21:29:08.522Z,69.93
2022-12-20T21:31:15.008Z,70.48
2022-12-20T21:33:24.018Z,70.58
2022-12-20T21:35:27.426Z,70.27
2022-12-20T21:37:32.874Z,69.72
2022-12-20T21:39:38.124Z,69.92
2022-12-20T21:41:41.151Z,70.06
2022-12-20T21:43:43.730Z,70.32
2022-12-20T21:45:53.387Z,69.74
2022-12-20T21:48:01.174Z,69.59
2022-12-20T21:50:08.263Z,70.05
2022-12-20T21:52:11.197Z,70.35
2022-12-20T21:54:13.348Z,69.94
2022-12-20T21:56:20.056Z,69.70
2022-12-20T22:00:46.032Z,69.60
2022-12-20T22:02:50.473Z,70.68
2022-12-20T22:04:55.817Z,70.38
2022-12-20T22:07:01.617Z,70.64
2022-12-20T22:09:15.629Z,70.56
2022-12-20T22:11:26.765Z,70.54
2022-12-20T22:13:41.074Z,70.83
2022-12-20T22:15:43.724Z,70.95
2022-12-20T22:17:51.381Z,70.47
2022-12-20T22:20:03.740Z,70.96
2022-12-20T22:22:11.263Z,71.20
2022-12-20T22:24:13.356Z,70.68
2022-12-20T22:26:20.390Z,70.68
2022-12-20T22:28:22.442Z,71.39
2022-12-20T22:30:24.722Z,71.63
2022-12-20T22:32:26.678Z,71.50
2022-12-20T22:34:35.865Z,71.35
2022-12-20T22:36:37.860Z,71.75
2022-12-20T22:38:45.888Z,70.70
2022-12-20T22:40:47.833Z,70.76
2022-12-20T22:42:56.301Z,71.18
2022-12-20T22:45:04.991Z,71.39
2022-12-20T22:49:26.575Z,72.16
2022-12-20T22:51:33.590Z,72.29
2022-12-20T22:53:36.951Z,73.35
2022-12-20T22:55:39.078Z,73.25
2022-12-20T22:57:41.027Z,73.37
2022-12-20T22:59:44.848Z,73.28
2022-12-20T23:01:47.947Z,73.33
2022-12-20T23:03:50.670Z,73.79
2022-12-20T23:05:59.078Z,73.51
2022-12-20T23:08:02.037Z,74.45
2022-12-20T23:10:04.106Z,73.83
2022-12-20T23:12:25.055Z,74.27
2022-12-20T23:14:46.708Z,73.86
2022-12-20T23:16:49.247Z,73.20
2022-12-20T23:18:55.589Z,74.00
2022-12-20T23:21:15.990Z,73.54
2022-12-20T23:23:17.835Z,73.78
2022-12-20T23:25:21.196Z,74.03
2022-12-20T23:27:23.242Z,74.76
2022-12-20T23:29:25.249Z,75.08
2022-12-20T23:31:28.719Z,75.09
2022-12-20T23:33:31.621Z,74.80
2022-12-20T23:35:33.635Z,74.38
2022-12-20T23:37:35.583Z,74.10
2022-12-20T23:39:38.633Z,74.76
2022-12-20T23:41:41.596Z,74.49
2022-12-20T23:43:43.761Z,73.60
2022-12-20T23:45:51.633Z,74.40
2022-12-20T23:47:53.581Z,74.55
2022-12-20T23:49:55.615Z,74.41
2022-12-20T23:51:57.514Z,74.64
2022-12-20T23:53:59.368Z,74.46
2022-12-20T23:56:16.014Z,74.56
2022-12-20T23:58:17.851Z,74.23
